Time;durP1;ratioP1;P1;durP2;ratioP2;P2;SDS_P1;SDS_P2;PMS_P1;PMS_P2;Temp;Humidity;BMP_temperature;BMP_pressure;BME280_temperature;BME280_humidity;BME280_pressure;Samples;Min_cycle;Max_cycle;Signal;HPM_P1;HPM_P2
2021/12/18 00:01:34;;;;;;;30.63;25.90;;;;;;;;;;10232295;28;20081;-55
2021/12/18 00:06:32;;;;;;;26.65;20.63;;;;;;;;;;10232188;28;20084;-54
2021/12/18 00:11:30;;;;;;;20.08;16.88;;;;;;;;;;10232143;28;20064;-55
2021/12/18 00:16:28;;;;;;;24.98;20.55;;;;;;;;;;10231992;28;20073;-54
2021/12/18 00:21:28;;;;;;;18.88;15.88;;;;;;;;;;10230873;28;20069;-55
2021/12/18 00:26:26;;;;;;;11.88;9.52;;;;;;;;;;10242353;28;20144;-55
2021/12/18 00:31:24;;;;;;;12.63;11.15;;;;;;;;;;10231570;28;20482;-54
2021/12/18 00:36:23;;;;;;;12.30;10.70;;;;;;;;;;10231156;28;20136;-55
2021/12/18 00:41:46;;;;;;;27.65;22.27;;;;;;;;;;10231340;28;20057;-55
2021/12/18 00:46:45;;;;;;;32.80;22.85;;;;;;;;;;10231627;28;20456;-54
2021/12/18 00:51:44;;;;;;;18.38;13.65;;;;;;;;;;10231433;28;20069;-55
2021/12/18 00:56:44;;;;;;;12.20;10.65;;;;;;;;;;10230580;28;20103;-55
2021/12/18 01:01:42;;;;;;;13.95;9.90;;;;;;;;;;10231115;28;20065;-55
2021/12/18 01:06:40;;;;;;;12.50;11.13;;;;;;;;;;10264062;28;20048;-56
2021/12/18 01:11:43;;;;;;;17.00;13.55;;;;;;;;;;10239877;28;20069;-54
2021/12/18 01:16:51;;;;;;;16.08;13.98;;;;;;;;;;10244128;28;20443;-53
2021/12/18 01:27:05;;;;;;;;;;;;;;;;;;10263950;28;20085;-52
2021/12/18 01:32:05;;;;;;;24.73;19.58;;;;;;;;;;10243585;28;20315;-50
2021/12/18 01:37:04;;;;;;;23.38;18.08;;;;;;;;;;10247481;28;20048;-50
2021/12/18 01:42:27;;;;;;;8.73;7.70;;;;;;;;;;10247408;28;20069;-55
2021/12/18 01:52:43;;;;;;;29.65;19.40;;;;;;;;;;10270480;28;20044;-56
2021/12/18 01:57:41;;;;;;;29.33;19.10;;;;;;;;;;10275548;28;20084;-53
2021/12/18 02:02:41;;;;;;;25.60;18.20;;;;;;;;;;10242221;28;20069;-52
2021/12/18 02:07:40;;;;;;;33.50;23.23;;;;;;;;;;10237186;28;20086;-54
2021/12/18 02:12:46;;;;;;;66.20;40.70;;;;;;;;;;10261295;28;20075;-53
2021/12/18 02:23:03;;;;;;;83.63;48.80;;;;;;;;;;10239176;28;20381;-56
2021/12/18 02:28:02;;;;;;;45.75;28.70;;;;;;;;;;10236128;28;20053;-53
2021/12/18 02:33:00;;;;;;;24.80;19.98;;;;;;;;;;10236113;28;20077;-54
2021/12/18 02:38:10;;;;;;;19.15;15.82;;;;;;;;;;10235886;28;20104;-53
2021/12/18 02:43:09;;;;;;;15.90;13.00;;;;;;;;;;10234761;28;20495;-53
2021/12/18 02:48:07;;;;;;;18.83;14.07;;;;;;;;;;10240912;28;20056;-55
2021/12/18 02:53:07;;;;;;;15.73;10.13;;;;;;;;;;10238556;28;20077;-54
2021/12/18 02:58:05;;;;;;;11.93;8.60;;;;;;;;;;10234737;28;20523;-54
2021/12/18 03:03:08;;;;;;;11.77;8.55;;;;;;;;;;10234776;28;20072;-54
2021/12/18 03:08:14;;;;;;;9.45;8.05;;;;;;;;;;10234076;28;20068;-52
2021/12/18 03:23:50;;;;;;;12.13;9.05;;;;;;;;;;10245014;28;20240;-55
2021/12/18 03:28:48;;;;;;;9.50;8.05;;;;;;;;;;10242497;28;20470;-55
2021/12/18 03:33:46;;;;;;;12.38;8.48;;;;;;;;;;10236661;28;20072;-53
2021/12/18 03:38:45;;;;;;;12.77;8.27;;;;;;;;;;10233672;28;20426;-54
2021/12/18 03:43:44;;;;;;;11.52;9.43;;;;;;;;;;10241790;28;20084;-53
2021/12/18 03:48:42;;;;;;;11.25;9.55;;;;;;;;;;10268756;28;20061;-54
2021/12/18 03:53:41;;;;;;;12.98;9.38;;;;;;;;;;10271355;28;20088;-57
2021/12/18 03:58:39;;;;;;;12.35;9.48;;;;;;;;;;10267939;28;20092;-53
2021/12/18 04:03:39;;;;;;;11.93;9.25;;;;;;;;;;10245643;28;20072;-54
2021/12/18 04:08:37;;;;;;;24.58;15.57;;;;;;;;;;10235550;28;20041;-52
2021/12/18 04:13:36;;;;;;;13.65;10.48;;;;;;;;;;10232000;28;20477;-50
2021/12/18 04:18:34;;;;;;;11.52;8.52;;;;;;;;;;10232477;28;20447;-53
2021/12/18 04:23:34;;;;;;;12.25;9.30;;;;;;;;;;10232261;28;20091;-50
2021/12/18 04:28:32;;;;;;;13.30;10.68;;;;;;;;;;10232220;28;20463;-53
2021/12/18 04:33:30;;;;;;;10.38;9.05;;;;;;;;;;10253080;28;20061;-55
2021/12/18 04:38:28;;;;;;;12.20;9.48;;;;;;;;;;10270620;28;20073;-55
2021/12/18 04:43:28;;;;;;;13.57;10.48;;;;;;;;;;10245861;28;20093;-54
2021/12/18 04:48:26;;;;;;;12.23;10.50;;;;;;;;;;10231795;28;20075;-54
2021/12/18 04:53:25;;;;;;;11.40;8.77;;;;;;;;;;10244051;28;20069;-56
2021/12/18 04:58:23;;;;;;;14.70;11.45;;;;;;;;;;10237654;28;20061;-55
2021/12/18 05:03:23;;;;;;;11.40;9.40;;;;;;;;;;10243753;28;20084;-55
2021/12/18 05:08:21;;;;;;;13.43;10.32;;;;;;;;;;10250911;28;20072;-56
2021/12/18 05:13:19;;;;;;;12.75;9.43;;;;;;;;;;10245629;28;20121;-55
2021/12/18 05:18:18;;;;;;;12.50;10.30;;;;;;;;;;10238970;28;20080;-56
2021/12/18 05:23:17;;;;;;;19.15;13.10;;;;;;;;;;10241519;28;20061;-53
2021/12/18 05:28:16;;;;;;;12.93;10.60;;;;;;;;;;10241147;28;20076;-53
2021/12/18 05:33:14;;;;;;;10.30;9.13;;;;;;;;;;10238555;28;20041;-54
2021/12/18 05:38:12;;;;;;;14.70;11.07;;;;;;;;;;10239425;28;20518;-55
2021/12/18 05:43:12;;;;;;;11.52;8.45;;;;;;;;;;10259595;28;20079;-52
2021/12/18 05:48:10;;;;;;;10.68;8.90;;;;;;;;;;10240720;28;20068;-54
2021/12/18 05:53:08;;;;;;;14.15;9.13;;;;;;;;;;10244852;28;20080;-53
2021/12/18 05:58:07;;;;;;;10.50;8.02;;;;;;;;;;10255110;28;20522;-55
2021/12/18 06:03:06;;;;;;;95.20;58.60;;;;;;;;;;10247194;28;20076;-54
2021/12/18 06:08:10;;;;;;;65.50;37.08;;;;;;;;;;10251686;28;20068;-56
2021/12/18 06:13:08;;;;;;;53.70;32.92;;;;;;;;;;10240555;28;20506;-56
2021/12/18 06:18:08;;;;;;;71.57;43.35;;;;;;;;;;10270901;28;20079;-56
2021/12/18 06:23:06;;;;;;;35.38;23.30;;;;;;;;;;10260866;28;20072;-56
2021/12/18 06:28:05;;;;;;;55.60;36.83;;;;;;;;;;10249129;28;20088;-55
2021/12/18 06:33:03;;;;;;;39.70;29.20;;;;;;;;;;10270414;28;20084;-53
2021/12/18 06:38:03;;;;;;;37.60;29.45;;;;;;;;;;10245989;28;20498;-54
2021/12/18 06:43:01;;;;;;;41.60;28.15;;;;;;;;;;10240561;28;20091;-54
2021/12/18 06:47:59;;;;;;;47.83;30.17;;;;;;;;;;10251186;28;20100;-55
2021/12/18 06:52:58;;;;;;;34.50;24.83;;;;;;;;;;10256043;28;20524;-53
2021/12/18 06:57:58;;;;;;;39.45;24.25;;;;;;;;;;10263840;28;20083;-54
2021/12/18 07:02:56;;;;;;;44.65;29.52;;;;;;;;;;10233773;28;20538;-54
2021/12/18 07:07:56;;;;;;;61.75;39.88;;;;;;;;;;10227154;28;20107;-52
2021/12/18 07:12:54;;;;;;;66.55;33.80;;;;;;;;;;10226301;28;20072;-56
2021/12/18 07:17:53;;;;;;;61.35;32.08;;;;;;;;;;10233645;28;20064;-55
2021/12/18 07:22:52;;;;;;;66.65;37.92;;;;;;;;;;10237528;28;20085;-53
2021/12/18 07:27:50;;;;;;;89.05;42.50;;;;;;;;;;10235076;28;20066;-53
2021/12/18 07:32:49;;;;;;;36.08;23.67;;;;;;;;;;10230961;28;20310;-54
2021/12/18 07:37:48;;;;;;;21.27;14.70;;;;;;;;;;10231344;28;20053;-52
2021/12/18 07:42:47;;;;;;;31.70;20.42;;;;;;;;;;10236184;28;20094;-54
2021/12/18 07:47:45;;;;;;;21.88;14.38;;;;;;;;;;10235486;28;20068;-54
2021/12/18 07:52:43;;;;;;;15.20;11.82;;;;;;;;;;10230268;28;20073;-55
2021/12/18 07:57:43;;;;;;;13.20;9.05;;;;;;;;;;10227208;28;20196;-53
2021/12/18 08:02:42;;;;;;;10.80;9.13;;;;;;;;;;10223979;28;20083;-51
2021/12/18 08:07:40;;;;;;;16.30;12.63;;;;;;;;;;10248086;28;20536;-54
2021/12/18 08:12:38;;;;;;;14.15;11.35;;;;;;;;;;10242169;28;20517;-55
2021/12/18 08:17:38;;;;;;;19.42;13.20;;;;;;;;;;10241797;28;20077;-55
2021/12/18 08:22:36;;;;;;;16.58;12.15;;;;;;;;;;10241340;28;20470;-56
2021/12/18 08:27:35;;;;;;;42.45;23.52;;;;;;;;;;10238242;28;20072;-54
2021/12/18 08:32:33;;;;;;;21.83;14.68;;;;;;;;;;10232087;28;20537;-54
2021/12/18 08:37:33;;;;;;;20.20;11.93;;;;;;;;;;10232207;28;20073;-55
2021/12/18 08:42:31;;;;;;;18.20;11.23;;;;;;;;;;10236251;28;20064;-50
2021/12/18 08:47:30;;;;;;;41.50;18.85;;;;;;;;;;10240339;28;20149;-53
2021/12/18 08:52:28;;;;;;;43.55;24.92;;;;;;;;;;10278771;28;20068;-51
2021/12/18 08:57:28;;;;;;;15.27;10.90;;;;;;;;;;10239290;28;20487;-51
2021/12/18 09:02:26;;;;;;;17.50;10.55;;;;;;;;;;10239460;28;20056;-53
2021/12/18 09:07:27;;;;;;;16.25;8.80;;;;;;;;;;10247955;28;20072;-52
2021/12/18 09:12:25;;;;;;;18.38;11.30;;;;;;;;;;10239057;28;20115;-53
2021/12/18 09:17:25;;;;;;;25.02;10.05;;;;;;;;;;10239806;28;20060;-51
2021/12/18 09:22:23;;;;;;;25.40;15.13;;;;;;;;;;10250299;28;20041;-49
2021/12/18 09:27:22;;;;;;;23.92;11.65;;;;;;;;;;10238801;28;20068;-53
2021/12/18 09:32:20;;;;;;;12.73;9.27;;;;;;;;;;10239104;28;20042;-52
2021/12/18 09:37:20;;;;;;;16.55;10.68;;;;;;;;;;10238019;28;20065;-55
2021/12/18 09:42:18;;;;;;;38.20;25.35;;;;;;;;;;10237760;28;20073;-55
2021/12/18 09:47:17;;;;;;;16.65;10.27;;;;;;;;;;10237483;28;20077;-53
2021/12/18 09:52:16;;;;;;;75.25;38.28;;;;;;;;;;10236857;28;20081;-53
2021/12/18 09:57:15;;;;;;;18.90;12.98;;;;;;;;;;10237019;28;20564;-52
2021/12/18 10:02:14;;;;;;;14.68;8.15;;;;;;;;;;10236449;28;20052;-52
2021/12/18 10:07:16;;;;;;;17.92;11.20;;;;;;;;;;10236601;28;20077;-54
2021/12/18 10:12:17;;;;;;;21.13;14.48;;;;;;;;;;10236431;28;20472;-50
2021/12/18 10:17:27;;;;;;;38.42;23.95;;;;;;;;;;10251464;28;20069;-53
2021/12/18 10:22:25;;;;;;;25.45;13.70;;;;;;;;;;10246322;28;20443;-55
2021/12/18 10:27:26;;;;;;;26.27;12.65;;;;;;;;;;10246402;28;20072;-56
2021/12/18 10:32:25;;;;;;;26.05;15.18;;;;;;;;;;10242853;28;20451;-55
2021/12/18 10:37:24;;;;;;;21.95;11.73;;;;;;;;;;10235952;28;20439;-55
2021/12/18 10:42:23;;;;;;;18.65;10.07;;;;;;;;;;10235827;28;20069;-55
2021/12/18 10:47:27;;;;;;;42.58;21.85;;;;;;;;;;10237838;28;20082;-55
2021/12/18 10:52:36;;;;;;;23.85;15.43;;;;;;;;;;10242395;28;20072;-55
2021/12/18 10:57:35;;;;;;;11.13;8.30;;;;;;;;;;10238368;28;20099;-52
2021/12/18 11:02:41;;;;;;;17.50;8.18;;;;;;;;;;10240915;28;20069;-54
2021/12/18 11:07:43;;;;;;;18.58;9.52;;;;;;;;;;10234862;28;20072;-56
2021/12/18 11:17:57;;;;;;;;;;;;;;;;;;10274238;28;20084;-55
2021/12/18 11:22:57;;;;;;;21.83;9.95;;;;;;;;;;10271962;28;20412;-55
2021/12/18 11:27:57;;;;;;;18.45;9.77;;;;;;;;;;10243511;28;20091;-54
2021/12/18 11:32:55;;;;;;;12.00;7.03;;;;;;;;;;10233677;28;20089;-54
2021/12/18 11:37:57;;;;;;;25.13;10.50;;;;;;;;;;10233918;28;20069;-55
2021/12/18 11:42:55;;;;;;;28.45;16.25;;;;;;;;;;10232322;28;20321;-55
2021/12/18 11:47:55;;;;;;;18.27;10.93;;;;;;;;;;10238565;28;20183;-54
2021/12/18 11:52:55;;;;;;;14.93;9.00;;;;;;;;;;10241265;28;20107;-55
2021/12/18 11:57:58;;;;;;;11.90;8.48;;;;;;;;;;10232637;28;20084;-54
2021/12/18 12:02:57;;;;;;;54.10;30.67;;;;;;;;;;10233000;28;20069;-54
2021/12/18 12:08:18;;;;;;;28.10;13.77;;;;;;;;;;10237522;28;20077;-54
2021/12/18 12:13:17;;;;;;;13.18;7.85;;;;;;;;;;10234706;28;20059;-51
2021/12/18 12:18:16;;;;;;;16.70;12.27;;;;;;;;;;10231452;28;20077;-54
2021/12/18 12:23:15;;;;;;;35.58;17.58;;;;;;;;;;10231973;28;20090;-52
2021/12/18 12:28:14;;;;;;;17.65;10.38;;;;;;;;;;10237836;28;20083;-52
2021/12/18 12:33:22;;;;;;;22.00;11.93;;;;;;;;;;10238840;28;20083;-50
2021/12/18 12:38:24;;;;;;;33.95;16.63;;;;;;;;;;10232431;28;20042;-56
2021/12/18 12:43:26;;;;;;;19.80;12.63;;;;;;;;;;10239085;28;20045;-56
2021/12/18 12:48:25;;;;;;;19.42;10.93;;;;;;;;;;10244369;28;20071;-54
2021/12/18 12:53:47;;;;;;;11.85;9.10;;;;;;;;;;10234556;28;20151;-53
2021/12/18 12:58:46;;;;;;;27.88;16.50;;;;;;;;;;10265073;28;20049;-54
2021/12/18 13:03:47;;;;;;;52.17;29.17;;;;;;;;;;10270374;28;20045;-51
2021/12/18 13:08:46;;;;;;;24.85;14.93;;;;;;;;;;10266977;28;20068;-51
2021/12/18 13:13:45;;;;;;;42.72;27.38;;;;;;;;;;10234024;28;20472;-54
2021/12/18 13:18:45;;;;;;;29.60;14.13;;;;;;;;;;10231540;28;20091;-55
2021/12/18 13:23:46;;;;;;;23.70;15.63;;;;;;;;;;10231551;28;20045;-53
2021/12/18 13:28:53;;;;;;;26.85;18.27;;;;;;;;;;10242742;28;20061;-52
2021/12/18 13:33:58;;;;;;;32.30;20.52;;;;;;;;;;10241745;28;20070;-51
2021/12/18 13:39:06;;;;;;;21.92;14.75;;;;;;;;;;10238967;28;20080;-53
2021/12/18 13:44:05;;;;;;;43.10;30.40;;;;;;;;;;10238575;28;20052;-53
2021/12/18 13:49:03;;;;;;;36.55;24.65;;;;;;;;;;10248571;28;20079;-53
2021/12/18 13:54:05;;;;;;;35.72;19.90;;;;;;;;;;10241618;28;20451;-56
2021/12/18 13:59:12;;;;;;;28.27;18.35;;;;;;;;;;10236642;28;20430;-54
2021/12/18 14:04:14;;;;;;;22.90;17.80;;;;;;;;;;10235981;28;20042;-55
2021/12/18 14:09:31;;;;;;;38.80;25.73;;;;;;;;;;10270962;28;20081;-53
2021/12/18 14:14:33;;;;;;;22.90;16.60;;;;;;;;;;10269638;28;20088;-49
2021/12/18 14:19:32;;;;;;;24.55;16.15;;;;;;;;;;10247375;28;20414;-52
2021/12/18 14:24:32;;;;;;;26.33;18.15;;;;;;;;;;10248125;28;20070;-55
2021/12/18 14:29:32;;;;;;;14.43;10.25;;;;;;;;;;10236962;28;20084;-55
2021/12/18 14:34:32;;;;;;;17.63;11.90;;;;;;;;;;10236722;28;20073;-53
2021/12/18 14:39:33;;;;;;;23.52;15.18;;;;;;;;;;10245578;28;20072;-53
2021/12/18 14:44:32;;;;;;;34.63;24.33;;;;;;;;;;10236473;28;20073;-52
2021/12/18 14:49:30;;;;;;;27.67;23.85;;;;;;;;;;10235764;28;20093;-54
2021/12/18 14:54:29;;;;;;;29.70;20.70;;;;;;;;;;10245617;28;20048;-52
2021/12/18 14:59:28;;;;;;;40.15;24.20;;;;;;;;;;10234966;28;20467;-56
2021/12/18 15:04:28;;;;;;;34.05;21.08;;;;;;;;;;10235752;28;20056;-55
2021/12/18 15:09:28;;;;;;;35.05;24.15;;;;;;;;;;10235221;28;20080;-53
2021/12/18 15:14:33;;;;;;;71.95;48.15;;;;;;;;;;10234923;28;20593;-55
2021/12/18 15:19:31;;;;;;;;;;;;;;;;;;10248163;28;20068;-54
2021/12/18 15:24:32;;;;;;;108.72;69.20;;;;;;;;;;10234512;28;20290;-54
2021/12/18 15:29:32;;;;;;;37.85;25.67;;;;;;;;;;10234294;28;20085;-54
2021/12/18 15:34:31;;;;;;;73.68;50.35;;;;;;;;;;10246353;28;20502;-54
2021/12/18 15:39:32;;;;;;;120.85;78.40;;;;;;;;;;10252039;28;20526;-54
2021/12/18 15:44:31;;;;;;;78.20;50.42;;;;;;;;;;10239898;28;20049;-54
2021/12/18 15:49:29;;;;;;;68.97;46.13;;;;;;;;;;10233338;28;20120;-53
2021/12/18 15:54:27;;;;;;;49.92;34.47;;;;;;;;;;10245616;28;20084;-52
2021/12/18 15:59:27;;;;;;;45.83;33.60;;;;;;;;;;10233736;28;20491;-53
2021/12/18 16:04:25;;;;;;;52.50;35.42;;;;;;;;;;10233090;28;20084;-55
2021/12/18 16:09:24;;;;;;;57.80;37.95;;;;;;;;;;10244973;28;20084;-54
2021/12/18 16:14:22;;;;;;;86.15;57.85;;;;;;;;;;10242768;28;20047;-52
2021/12/18 16:19:22;;;;;;;79.30;50.63;;;;;;;;;;10242032;28;20115;-51
2021/12/18 16:24:20;;;;;;;62.75;41.60;;;;;;;;;;10242102;28;20434;-53
2021/12/18 16:29:18;;;;;;;80.25;48.97;;;;;;;;;;10233609;28;20476;-54
2021/12/18 16:34:17;;;;;;;68.75;42.75;;;;;;;;;;10232037;28;20069;-55
2021/12/18 16:39:16;;;;;;;80.53;53.35;;;;;;;;;;10230447;28;20046;-54
2021/12/18 16:44:15;;;;;;;99.03;67.88;;;;;;;;;;10232192;28;20068;-55
2021/12/18 16:49:13;;;;;;;123.97;82.28;;;;;;;;;;10267165;28;20515;-53
2021/12/18 16:54:11;;;;;;;110.30;79.78;;;;;;;;;;10234495;28;20080;-56
2021/12/18 16:59:11;;;;;;;205.52;113.60;;;;;;;;;;10231387;28;20085;-54
2021/12/18 17:04:14;;;;;;;133.77;97.85;;;;;;;;;;10258489;28;20099;-54
2021/12/18 17:09:12;;;;;;;98.18;63.97;;;;;;;;;;10278457;28;20121;-55
2021/12/18 17:14:12;;;;;;;68.65;48.90;;;;;;;;;;10278351;28;20041;-56
2021/12/18 17:19:13;;;;;;;71.13;47.92;;;;;;;;;;10268986;28;20072;-53
2021/12/18 17:24:12;;;;;;;87.38;60.97;;;;;;;;;;10238842;28;20514;-55
2021/12/18 17:29:12;;;;;;;90.88;61.00;;;;;;;;;;10239024;28;20533;-54
2021/12/18 17:34:10;;;;;;;111.40;76.28;;;;;;;;;;10238936;28;20076;-50
2021/12/18 17:39:09;;;;;;;45.33;32.83;;;;;;;;;;10238772;28;20050;-51
2021/12/18 17:44:07;;;;;;;28.52;21.17;;;;;;;;;;10238363;28;20068;-55
2021/12/18 17:49:07;;;;;;;25.98;18.92;;;;;;;;;;10248434;28;20072;-53
2021/12/18 17:54:05;;;;;;;13.73;11.20;;;;;;;;;;10248456;28;20069;-53
2021/12/18 17:59:04;;;;;;;15.23;12.20;;;;;;;;;;10240002;28;20078;-55
2021/12/18 18:04:04;;;;;;;16.58;14.50;;;;;;;;;;10237456;28;20129;-52
2021/12/18 18:09:04;;;;;;;35.13;22.42;;;;;;;;;;10237399;28;20072;-55
2021/12/18 18:14:03;;;;;;;127.40;71.28;;;;;;;;;;10235927;28;20053;-54
2021/12/18 18:19:02;;;;;;;75.57;46.92;;;;;;;;;;10244473;28;20084;-52
2021/12/18 18:24:00;;;;;;;64.55;39.10;;;;;;;;;;10261752;28;20065;-53
2021/12/18 18:28:59;;;;;;;47.15;29.70;;;;;;;;;;10275529;28;20077;-54
2021/12/18 18:33:58;;;;;;;49.97;29.58;;;;;;;;;;10275241;28;20513;-54
2021/12/18 18:38:56;;;;;;;39.85;26.42;;;;;;;;;;10270628;28;20061;-53
2021/12/18 18:43:55;;;;;;;47.38;31.67;;;;;;;;;;10238817;28;20053;-55
2021/12/18 18:48:58;;;;;;;49.10;35.03;;;;;;;;;;10236028;28;20088;-54
2021/12/18 18:53:59;;;;;;;46.00;31.73;;;;;;;;;;10235866;28;20076;-55
2021/12/18 18:58:58;;;;;;;41.03;28.80;;;;;;;;;;10246076;28;20076;-56
2021/12/18 19:04:02;;;;;;;44.25;28.80;;;;;;;;;;10246002;28;20076;-55
2021/12/18 19:09:01;;;;;;;48.45;34.35;;;;;;;;;;10248615;28;20112;-55
2021/12/18 19:13:59;;;;;;;46.88;33.25;;;;;;;;;;10270291;28;20175;-55
2021/12/18 19:19:04;;;;;;;46.78;34.42;;;;;;;;;;10273717;28;20072;-54
2021/12/18 19:24:03;;;;;;;40.27;26.93;;;;;;;;;;10273054;28;20166;-55
2021/12/18 19:29:02;;;;;;;27.85;20.88;;;;;;;;;;10268652;28;20084;-56
2021/12/18 19:34:02;;;;;;;29.92;20.90;;;;;;;;;;10244367;28;20076;-57
2021/12/18 19:39:00;;;;;;;29.23;20.90;;;;;;;;;;10236577;28;20518;-54
2021/12/18 19:43:59;;;;;;;27.65;19.50;;;;;;;;;;10269399;28;20437;-54
2021/12/18 19:48:58;;;;;;;27.52;18.10;;;;;;;;;;10272305;28;20065;-54
2021/12/18 19:53:57;;;;;;;27.10;20.58;;;;;;;;;;10265018;28;20072;-55
2021/12/18 19:58:55;;;;;;;26.95;21.73;;;;;;;;;;10235793;28;20081;-55
2021/12/18 20:09:12;;;;;;;30.40;21.98;;;;;;;;;;10232947;28;20151;-55
2021/12/18 20:14:10;;;;;;;32.78;20.08;;;;;;;;;;10232340;28;20475;-55
2021/12/18 20:19:10;;;;;;;55.85;33.65;;;;;;;;;;10232566;28;20069;-55
2021/12/18 20:24:09;;;;;;;153.48;72.45;;;;;;;;;;10232465;28;20112;-51
2021/12/18 20:29:08;;;;;;;96.07;51.60;;;;;;;;;;10242792;28;20520;-54
2021/12/18 20:34:06;;;;;;;73.60;48.35;;;;;;;;;;10235476;28;20145;-55
2021/12/18 20:39:06;;;;;;;105.20;62.42;;;;;;;;;;10231759;28;20083;-55
2021/12/18 20:44:05;;;;;;;270.95;147.20;;;;;;;;;;10232291;28;20475;-54
2021/12/18 20:49:05;;;;;;;128.02;73.97;;;;;;;;;;10231809;28;20073;-52
2021/12/18 20:54:06;;;;;;;91.07;55.38;;;;;;;;;;10232296;28;20474;-55
2021/12/18 20:59:09;;;;;;;77.43;48.10;;;;;;;;;;10231558;28;20440;-55
2021/12/18 21:04:08;;;;;;;92.45;57.65;;;;;;;;;;10232257;28;20088;-56
2021/12/18 21:09:09;;;;;;;114.43;69.18;;;;;;;;;;10255336;28;20096;-55
2021/12/18 21:14:09;;;;;;;104.15;61.22;;;;;;;;;;10242123;28;20068;-57
2021/12/18 21:19:10;;;;;;;70.75;39.63;;;;;;;;;;10231580;28;20052;-57
2021/12/18 21:24:10;;;;;;;105.32;62.08;;;;;;;;;;10249386;28;20080;-55
2021/12/18 21:29:10;;;;;;;163.00;101.95;;;;;;;;;;10238614;28;20041;-56
2021/12/18 21:34:19;;;;;;;118.70;70.13;;;;;;;;;;10240777;28;20080;-57
2021/12/18 21:39:18;;;;;;;116.95;66.72;;;;;;;;;;10231274;28;20076;-57
2021/12/18 21:44:18;;;;;;;66.85;43.22;;;;;;;;;;10229249;28;20049;-56
2021/12/18 21:49:16;;;;;;;162.52;85.95;;;;;;;;;;10234310;28;20073;-56
2021/12/18 21:54:16;;;;;;;68.75;43.70;;;;;;;;;;10244895;28;20073;-54
2021/12/18 21:59:15;;;;;;;60.80;39.80;;;;;;;;;;10263737;28;20085;-57
2021/12/18 22:04:15;;;;;;;32.08;23.08;;;;;;;;;;10239939;28;20077;-55
2021/12/18 22:09:14;;;;;;;11.73;9.38;;;;;;;;;;10236694;28;20080;-55
2021/12/18 22:14:15;;;;;;;104.18;63.08;;;;;;;;;;10237236;28;20065;-56
2021/12/18 22:19:15;;;;;;;39.47;30.38;;;;;;;;;;10237261;28;20463;-56
2021/12/18 22:24:14;;;;;;;45.25;33.10;;;;;;;;;;10242899;28;20045;-57
2021/12/18 22:29:14;;;;;;;74.20;43.65;;;;;;;;;;10237105;28;20136;-56
2021/12/18 22:34:12;;;;;;;59.70;38.70;;;;;;;;;;10242507;28;20073;-57
2021/12/18 22:39:12;;;;;;;48.97;33.53;;;;;;;;;;10259730;28;20112;-57
2021/12/18 22:44:10;;;;;;;23.58;18.40;;;;;;;;;;10251342;28;20150;-54
2021/12/18 22:49:14;;;;;;;21.25;13.25;;;;;;;;;;10241465;28;20072;-56
2021/12/18 22:54:14;;;;;;;66.53;46.53;;;;;;;;;;10239265;28;20131;-57
2021/12/18 22:59:13;;;;;;;58.13;37.90;;;;;;;;;;10240678;28;20569;-57
2021/12/18 23:04:11;;;;;;;36.10;25.65;;;;;;;;;;10239148;28;20072;-57
2021/12/18 23:09:11;;;;;;;22.83;17.52;;;;;;;;;;10238232;28;20057;-56
2021/12/18 23:24:49;;;;;;;41.57;29.47;;;;;;;;;;10242820;28;20490;-56
2021/12/18 23:29:49;;;;;;;30.85;22.23;;;;;;;;;;10241020;28;20084;-52
2021/12/18 23:34:48;;;;;;;34.65;24.83;;;;;;;;;;10241394;28;20075;-56
2021/12/18 23:39:46;;;;;;;34.72;24.83;;;;;;;;;;10240985;28;20068;-56
2021/12/18 23:50:01;;;;;;;33.97;28.83;;;;;;;;;;10241172;28;20069;-58
2021/12/18 23:55:00;;;;;;;13.32;11.10;;;;;;;;;;10239587;28;20510;-57
2021/12/18 23:59:58;;;;;;;12.35;10.95;;;;;;;;;;10241982;28;20549;-55
